createdAt,value
2022-08-20T00:01:27.095Z,2.30
2022-08-20T00:03:36.283Z,2.58
2022-08-20T00:05:42.797Z,2.58
2022-08-20T00:07:45.443Z,2.20
2022-08-20T00:09:48.142Z,2.03
2022-08-20T00:11:50.759Z,2.58
2022-08-20T00:13:57.162Z,2.78
2022-08-20T00:16:00.194Z,2.22
2022-08-20T00:18:03.903Z,2.47
2022-08-20T00:20:10.073Z,2.95
2022-08-20T00:22:13.758Z,2.70
2022-08-20T00:24:16.858Z,3.15
2022-08-20T00:26:20.770Z,2.38
2022-08-20T00:28:23.405Z,3.15
2022-08-20T00:30:27.231Z,2.60
2022-08-20T00:32:29.850Z,2.92
2022-08-20T00:34:32.658Z,3.15
2022-08-20T00:36:35.325Z,2.50
2022-08-20T00:38:40.162Z,3.60
2022-08-20T00:40:52.565Z,2.83
2022-08-20T00:42:59.503Z,2.80
2022-08-20T00:45:02.279Z,2.95
2022-08-20T00:47:06.405Z,2.42
2022-08-20T00:49:15.223Z,2.90
2022-08-20T00:51:17.919Z,3.00
2022-08-20T00:53:23.831Z,2.17
2022-08-20T00:55:31.456Z,2.72
2022-08-20T00:57:43.808Z,2.90
2022-08-20T01:00:09.809Z,3.35
2022-08-20T01:02:16.371Z,2.35
2022-08-20T01:04:19.459Z,2.78
2022-08-20T01:06:22.763Z,2.50
2022-08-20T01:08:26.954Z,2.35
2022-08-20T01:10:35.222Z,2.45
2022-08-20T01:12:41.095Z,2.92
2022-08-20T01:14:46.388Z,3.60
2022-08-20T01:16:53.343Z,3.00
2022-08-20T01:18:57.862Z,2.67
2022-08-20T01:21:04.312Z,3.25
2022-08-20T01:23:27.848Z,2.53
2022-08-20T01:25:41.760Z,2.38
2022-08-20T01:27:46.363Z,2.30
2022-08-20T01:29:54.102Z,3.28
2022-08-20T01:32:01.574Z,3.25
2022-08-20T01:34:08.377Z,2.63
2022-08-20T01:36:12.849Z,3.22
2022-08-20T01:38:15.455Z,3.20
2022-08-20T01:40:27.946Z,3.22
2022-08-20T01:42:58.992Z,3.25
2022-08-20T01:45:04.376Z,3.72
2022-08-20T01:47:17.920Z,3.20
2022-08-20T01:49:25.921Z,4.50
2022-08-20T01:51:30.913Z,3.17
2022-08-20T01:53:41.723Z,3.65
2022-08-20T01:55:44.611Z,4.63
2022-08-20T01:57:48.594Z,3.58
2022-08-20T01:59:51.528Z,3.65
2022-08-20T02:01:54.896Z,4.13
2022-08-20T02:03:57.682Z,4.25
2022-08-20T02:06:01.496Z,3.65
2022-08-20T02:08:05.636Z,5.00
2022-08-20T02:10:11.938Z,4.90
2022-08-20T02:12:14.881Z,4.47
2022-08-20T02:14:17.621Z,3.70
2022-08-20T02:16:29.345Z,3.72
2022-08-20T02:20:34.928Z,4.25
2022-08-20T02:22:55.127Z,4.13
2022-08-20T02:24:57.963Z,4.78
2022-08-20T02:27:00.708Z,4.15
2022-08-20T02:29:06.071Z,4.68
2022-08-20T02:31:08.825Z,4.80
2022-08-20T02:33:14.811Z,5.22
2022-08-20T02:35:19.407Z,4.93
2022-08-20T02:37:22.046Z,4.40
2022-08-20T02:39:25.961Z,4.07
2022-08-20T02:41:29.867Z,4.45
2022-08-20T02:43:32.512Z,4.25
2022-08-20T02:45:37.498Z,4.82
2022-08-20T02:47:40.238Z,3.72
2022-08-20T02:49:43.137Z,4.05
2022-08-20T02:51:46.501Z,4.50
2022-08-20T02:53:49.191Z,4.18
2022-08-20T02:55:52.060Z,4.18
2022-08-20T02:58:00.271Z,4.05
2022-08-20T03:00:15.164Z,4.45
2022-08-20T03:02:18.103Z,3.45
2022-08-20T03:04:20.820Z,3.83
2022-08-20T03:06:28.713Z,4.20
2022-08-20T03:08:31.495Z,4.30
2022-08-20T03:10:36.255Z,3.65
2022-08-20T03:12:39.135Z,3.75
2022-08-20T03:14:41.826Z,3.45
2022-08-20T03:16:44.473Z,4.20
2022-08-20T03:18:48.283Z,3.83
2022-08-20T03:20:54.787Z,3.90
2022-08-20T03:22:57.952Z,4.40
2022-08-20T03:25:00.524Z,3.67
2022-08-20T03:27:03.199Z,3.22
2022-08-20T03:29:05.924Z,3.95
2022-08-20T03:31:09.006Z,3.35
2022-08-20T03:33:11.927Z,3.80
2022-08-20T03:35:16.707Z,4.00
2022-08-20T03:37:19.526Z,3.38
2022-08-20T03:39:22.210Z,3.38
2022-08-20T03:41:25.625Z,3.40
2022-08-20T03:43:28.767Z,3.50
2022-08-20T03:45:32.675Z,3.40
2022-08-20T03:47:36.095Z,2.70
2022-08-20T03:49:38.760Z,3.08
2022-08-20T03:51:57.758Z,3.85
2022-08-20T03:54:00.984Z,3.30
2022-08-20T03:56:06.374Z,3.72
2022-08-20T03:58:10.416Z,2.85
2022-08-20T04:00:15.680Z,3.13
2022-08-20T04:02:18.731Z,3.67
2022-08-20T04:04:22.274Z,3.50
2022-08-20T04:06:25.818Z,3.13
2022-08-20T04:08:29.979Z,3.15
2022-08-20T04:10:32.790Z,3.67
2022-08-20T04:12:37.601Z,2.97
2022-08-20T04:14:40.526Z,2.78
2022-08-20T04:16:43.996Z,4.10
2022-08-20T04:19:01.601Z,2.63
2022-08-20T04:21:06.106Z,2.95
2022-08-20T04:23:09.515Z,3.20
2022-08-20T04:25:15.977Z,2.92
2022-08-20T04:27:20.465Z,3.28
2022-08-20T04:29:26.100Z,3.72
2022-08-20T04:31:35.072Z,3.40
2022-08-20T04:33:37.726Z,3.40
2022-08-20T04:35:40.388Z,3.40
2022-08-20T04:37:43.311Z,3.13
2022-08-20T04:39:45.983Z,3.28
2022-08-20T04:41:48.986Z,3.33
2022-08-20T04:43:56.724Z,3.53
2022-08-20T04:46:02.363Z,3.05
2022-08-20T04:48:07.525Z,2.55
2022-08-20T04:50:13.812Z,3.88
2022-08-20T04:52:16.457Z,3.45
2022-08-20T04:54:19.186Z,2.95
2022-08-20T04:56:28.449Z,3.17
2022-08-20T04:58:34.758Z,3.88
2022-08-20T05:00:37.959Z,2.78
2022-08-20T05:02:40.940Z,2.50
2022-08-20T05:04:43.579Z,3.30
2022-08-20T05:06:46.201Z,3.85
2022-08-20T05:08:48.915Z,3.78
2022-08-20T05:10:56.036Z,2.90
2022-08-20T05:13:16.667Z,3.22
2022-08-20T05:15:20.100Z,3.20
2022-08-20T05:17:24.005Z,3.08
2022-08-20T05:19:29.150Z,3.05
2022-08-20T05:21:31.800Z,3.33
2022-08-20T05:23:36.869Z,3.38
2022-08-20T05:25:42.112Z,2.17
2022-08-20T05:27:47.723Z,2.25
2022-08-20T05:29:52.228Z,2.28
2022-08-20T05:31:56.822Z,2.60
2022-08-20T05:33:59.579Z,3.10
2022-08-20T05:36:02.686Z,2.65
2022-08-20T05:38:11.912Z,2.85
2022-08-20T05:40:15.008Z,3.25
2022-08-20T05:42:17.876Z,2.60
2022-08-20T05:44:20.940Z,2.70
2022-08-20T05:46:23.534Z,2.05
2022-08-20T05:48:26.284Z,2.75
2022-08-20T05:50:28.905Z,2.65
2022-08-20T05:52:31.555Z,3.47
2022-08-20T05:54:34.311Z,2.42
2022-08-20T05:56:37.432Z,2.42
2022-08-20T05:58:40.171Z,2.72
2022-08-20T06:00:42.912Z,1.92
2022-08-20T06:03:04.168Z,2.92
2022-08-20T06:05:07.029Z,2.97
2022-08-20T06:07:12.225Z,2.35
2022-08-20T06:09:31.017Z,2.70
2022-08-20T06:11:37.171Z,3.50
2022-08-20T06:13:40.177Z,2.42
2022-08-20T06:15:42.902Z,2.28
2022-08-20T06:17:45.993Z,2.75
2022-08-20T06:20:05.791Z,2.60
2022-08-20T06:22:17.900Z,2.58
2022-08-20T06:24:27.131Z,1.83
2022-08-20T06:26:31.113Z,1.90
2022-08-20T06:28:33.908Z,2.72
2022-08-20T06:30:37.314Z,2.08
2022-08-20T06:32:40.325Z,2.60
2022-08-20T06:34:49.957Z,2.97
2022-08-20T06:36:54.927Z,2.22
2022-08-20T06:38:58.545Z,1.85
2022-08-20T06:41:01.265Z,2.50
2022-08-20T06:43:04.250Z,2.30
2022-08-20T06:45:07.332Z,2.05
2022-08-20T06:47:09.950Z,2.45
2022-08-20T06:49:13.216Z,2.22
2022-08-20T06:51:15.949Z,2.55
2022-08-20T06:53:21.014Z,2.00
2022-08-20T06:55:24.173Z,2.17
2022-08-20T06:57:27.566Z,2.33
2022-08-20T06:59:30.270Z,2.22
2022-08-20T07:01:33.357Z,2.55
2022-08-20T07:03:38.472Z,2.05
2022-08-20T07:05:44.038Z,2.17
2022-08-20T07:07:51.314Z,3.42
2022-08-20T07:10:09.291Z,2.10
2022-08-20T07:12:14.368Z,2.15
2022-08-20T07:14:18.549Z,2.75
2022-08-20T07:16:21.127Z,3.03
2022-08-20T07:18:28.157Z,2.63
2022-08-20T07:20:34.722Z,2.08
2022-08-20T07:22:37.584Z,2.35
2022-08-20T07:24:42.010Z,3.03
2022-08-20T07:26:46.193Z,1.88
2022-08-20T07:28:49.286Z,2.65
2022-08-20T07:31:13.844Z,2.58
2022-08-20T07:33:18.944Z,2.53
2022-08-20T07:35:27.369Z,2.55
2022-08-20T07:37:30.226Z,3.25
2022-08-20T07:39:32.793Z,2.10
2022-08-20T07:41:35.845Z,2.33
2022-08-20T07:43:39.658Z,2.53
2022-08-20T07:45:47.998Z,3.63
2022-08-20T07:47:56.151Z,2.97
2022-08-20T07:49:59.004Z,2.38
2022-08-20T07:52:01.656Z,2.83
2022-08-20T07:54:06.775Z,2.97
2022-08-20T07:56:13.214Z,2.58
2022-08-20T07:58:20.022Z,2.70
2022-08-20T08:00:24.175Z,2.60
2022-08-20T08:02:28.419Z,2.90
2022-08-20T08:04:32.049Z,3.15
2022-08-20T08:06:36.868Z,2.40
2022-08-20T08:08:41.203Z,2.63
2022-08-20T08:10:46.357Z,2.80
2022-08-20T08:12:53.008Z,3.25
2022-08-20T08:14:56.584Z,3.08
2022-08-20T08:17:03.593Z,2.90
2022-08-20T08:19:09.841Z,3.10
2022-08-20T08:21:16.639Z,2.67
2022-08-20T08:23:24.869Z,3.05
2022-08-20T08:25:35.248Z,2.25
2022-08-20T08:27:38.324Z,2.50
2022-08-20T08:29:41.102Z,2.72
2022-08-20T08:31:43.811Z,2.67
2022-08-20T08:33:46.668Z,2.22
2022-08-20T08:35:49.257Z,2.60
2022-08-20T08:37:51.974Z,3.10
2022-08-20T08:39:54.709Z,2.30
2022-08-20T08:41:59.149Z,2.22
2022-08-20T08:44:06.172Z,2.22
2022-08-20T08:46:11.944Z,2.58
2022-08-20T08:48:18.772Z,2.60
2022-08-20T08:50:52.879Z,1.90
2022-08-20T08:52:59.630Z,2.30
2022-08-20T08:55:05.772Z,2.60
2022-08-20T08:57:10.923Z,2.40
2022-08-20T08:59:13.682Z,1.77
2022-08-20T09:01:54.416Z,1.80
2022-08-20T09:03:49.134Z,2.13
2022-08-20T09:05:58.739Z,2.05
2022-08-20T09:08:03.617Z,2.72
2022-08-20T09:10:07.358Z,2.42
2022-08-20T09:12:19.053Z,2.70
2022-08-20T09:14:25.112Z,7.50
2022-08-20T09:16:33.130Z,2.25
2022-08-20T09:18:52.282Z,5.22
2022-08-20T09:20:55.449Z,4.57
2022-08-20T09:22:58.258Z,2.83
2022-08-20T09:25:02.862Z,113.45
2022-08-20T09:27:06.665Z,13.13
2022-08-20T09:29:10.165Z,2.78
2022-08-20T09:31:12.798Z,2.38
2022-08-20T09:33:17.653Z,2.40
2022-08-20T09:35:20.272Z,2.38
2022-08-20T09:37:24.796Z,2.35
2022-08-20T09:39:27.359Z,2.35
2022-08-20T09:41:33.665Z,1.98
2022-08-20T09:43:38.440Z,2.70
2022-08-20T09:45:41.130Z,2.00
2022-08-20T09:47:54.688Z,2.42
2022-08-20T09:49:59.435Z,18.48
2022-08-20T09:52:02.957Z,39.95
2022-08-20T09:54:05.950Z,9.43
2022-08-20T09:56:09.422Z,73.82
2022-08-20T09:58:23.805Z,142.13
2022-08-20T10:00:26.461Z,82.03
2022-08-20T10:02:29.081Z,8.90
2022-08-20T10:04:31.694Z,461.05
2022-08-20T10:06:39.941Z,298.50
2022-08-20T10:08:43.578Z,327.75
2022-08-20T10:10:46.268Z,298.00
2022-08-20T10:12:52.801Z,308.77
2022-08-20T10:14:57.597Z,38.05
2022-08-20T10:17:01.818Z,49.00
2022-08-20T10:19:05.830Z,140.20
2022-08-20T10:21:12.420Z,90.18
2022-08-20T10:23:15.060Z,25.33
2022-08-20T10:25:18.059Z,355.85
2022-08-20T10:27:20.778Z,41.65
2022-08-20T10:29:23.547Z,14.35
2022-08-20T10:31:26.177Z,4.65
2022-08-20T10:33:28.722Z,5.95
2022-08-20T10:35:31.286Z,2.75
2022-08-20T10:37:34.945Z,3.22
2022-08-20T10:39:37.606Z,2.70
2022-08-20T10:41:40.665Z,2.45
2022-08-20T10:43:43.322Z,2.70
2022-08-20T10:45:45.936Z,2.45
2022-08-20T10:47:48.781Z,3.15
2022-08-20T10:49:53.531Z,2.58
2022-08-20T10:51:56.750Z,2.28
2022-08-20T10:54:00.242Z,2.42
2022-08-20T10:56:03.114Z,1.85
2022-08-20T10:58:07.224Z,2.05
2022-08-20T11:00:17.822Z,2.10
2022-08-20T11:02:21.281Z,2.47
2022-08-20T11:04:24.128Z,2.45
2022-08-20T11:06:26.856Z,2.35
2022-08-20T11:08:34.460Z,1.85
2022-08-20T11:10:39.392Z,1.95
2022-08-20T11:12:44.831Z,2.33
2022-08-20T11:14:50.535Z,2.13
2022-08-20T11:16:53.375Z,2.42
2022-08-20T11:18:56.019Z,2.35
2022-08-20T11:20:58.904Z,2.92
2022-08-20T11:23:01.572Z,2.30
2022-08-20T11:25:06.302Z,2.33
2022-08-20T11:27:09.707Z,2.40
2022-08-20T11:29:12.432Z,3.10
2022-08-20T11:31:15.182Z,1.98
2022-08-20T11:33:17.740Z,2.25
2022-08-20T11:35:42.296Z,2.35
2022-08-20T11:37:47.992Z,2.47
2022-08-20T11:39:51.099Z,2.33
2022-08-20T11:41:55.432Z,2.15
2022-08-20T11:44:20.221Z,2.08
2022-08-20T11:46:23.435Z,2.28
2022-08-20T11:48:29.257Z,2.20
2022-08-20T11:50:32.080Z,1.73
2022-08-20T11:52:35.341Z,2.00
2022-08-20T11:54:40.723Z,2.15
2022-08-20T11:56:45.979Z,2.25
2022-08-20T11:58:48.777Z,2.72
2022-08-20T12:00:51.541Z,2.22
2022-08-20T12:02:54.272Z,1.95
2022-08-20T12:04:58.474Z,1.73
2022-08-20T12:07:10.455Z,2.10
2022-08-20T12:09:13.374Z,2.33
2022-08-20T12:11:15.970Z,2.30
2022-08-20T12:13:18.576Z,2.47
2022-08-20T12:15:23.352Z,2.47
2022-08-20T12:17:29.826Z,2.30
2022-08-20T12:19:32.402Z,1.95
2022-08-20T12:21:35.103Z,2.53
2022-08-20T12:23:46.379Z,1.88
2022-08-20T12:25:50.384Z,2.10
2022-08-20T12:27:53.147Z,2.53
2022-08-20T12:29:58.103Z,1.58
2022-08-20T12:32:00.709Z,2.63
2022-08-20T12:34:03.344Z,1.85
2022-08-20T12:36:06.247Z,1.70
2022-08-20T12:38:08.962Z,1.55
2022-08-20T12:40:24.420Z,2.67
2022-08-20T12:42:35.566Z,1.92
2022-08-20T12:44:39.070Z,2.08
2022-08-20T12:46:41.629Z,1.70
2022-08-20T12:48:44.253Z,1.77
2022-08-20T12:50:47.110Z,2.45
2022-08-20T12:52:50.610Z,1.92
2022-08-20T12:54:54.568Z,2.60
2022-08-20T12:56:57.709Z,2.00
2022-08-20T12:59:00.293Z,1.80
2022-08-20T13:01:02.955Z,2.13
2022-08-20T13:03:07.162Z,1.90
2022-08-20T13:05:11.541Z,1.70
2022-08-20T13:07:14.783Z,2.10
2022-08-20T13:09:18.702Z,1.80
2022-08-20T13:11:21.351Z,2.47
2022-08-20T13:13:23.883Z,1.90
2022-08-20T13:15:26.545Z,2.15
2022-08-20T13:17:38.710Z,1.98
2022-08-20T13:19:42.073Z,1.50
2022-08-20T13:21:44.664Z,1.92
2022-08-20T13:23:57.664Z,2.08
2022-08-20T13:26:00.254Z,2.05
2022-08-20T13:28:04.878Z,2.03
2022-08-20T13:30:09.273Z,1.98
2022-08-20T13:32:11.876Z,1.58
2022-08-20T13:34:14.505Z,2.15
2022-08-20T13:36:17.132Z,1.70
2022-08-20T13:38:20.043Z,1.77
2022-08-20T13:40:22.775Z,1.40
2022-08-20T13:42:27.042Z,1.63
2022-08-20T13:44:33.212Z,1.65
2022-08-20T13:46:36.144Z,1.98
2022-08-20T13:48:38.758Z,1.80
2022-08-20T13:50:41.478Z,2.28
2022-08-20T13:52:46.010Z,2.08
2022-08-20T13:54:48.778Z,1.80
2022-08-20T13:56:51.375Z,2.17
2022-08-20T13:58:54.040Z,1.67
2022-08-20T14:00:56.921Z,2.10
2022-08-20T14:03:04.322Z,1.95
2022-08-20T14:05:07.717Z,1.70
2022-08-20T14:07:32.304Z,2.10
2022-08-20T14:09:38.452Z,2.22
2022-08-20T14:11:41.035Z,1.70
2022-08-20T14:13:43.769Z,2.60
2022-08-20T14:15:46.501Z,1.80
2022-08-20T14:17:52.467Z,2.00
2022-08-20T14:20:01.164Z,2.03
2022-08-20T14:22:06.421Z,1.23
2022-08-20T14:24:09.117Z,1.83
2022-08-20T14:26:11.785Z,1.73
2022-08-20T14:28:18.461Z,1.80
2022-08-20T14:30:28.353Z,2.05
2022-08-20T14:32:31.140Z,1.70
2022-08-20T14:34:34.974Z,2.17
2022-08-20T14:36:37.638Z,1.80
2022-08-20T14:38:45.187Z,1.50
2022-08-20T14:40:48.603Z,1.77
2022-08-20T14:42:51.967Z,1.70
2022-08-20T14:44:56.242Z,2.17
2022-08-20T14:47:11.182Z,2.58
2022-08-20T14:49:13.838Z,5.25
2022-08-20T14:51:16.985Z,1.65
2022-08-20T14:53:19.786Z,3.13
2022-08-20T14:55:25.477Z,2.65
2022-08-20T14:57:28.127Z,3.35
2022-08-20T14:59:30.904Z,5.80
2022-08-20T15:01:33.604Z,3.88
2022-08-20T15:03:36.238Z,3.55
2022-08-20T15:05:40.761Z,6.50
2022-08-20T15:07:46.436Z,2.17
2022-08-20T15:09:50.239Z,3.92
2022-08-20T15:11:52.801Z,5.65
2022-08-20T15:13:55.362Z,6.50
2022-08-20T15:15:58.057Z,3.60
2022-08-20T15:18:00.802Z,2.83
2022-08-20T15:20:19.877Z,3.78
2022-08-20T15:22:23.981Z,3.80
2022-08-20T15:24:26.547Z,3.40
2022-08-20T15:26:29.786Z,2.95
2022-08-20T15:28:32.426Z,2.47
2022-08-20T15:30:36.538Z,3.42
2022-08-20T15:32:39.407Z,2.72
2022-08-20T15:34:42.525Z,6.50
2022-08-20T15:36:45.383Z,3.05
2022-08-20T15:38:48.146Z,3.35
2022-08-20T15:40:50.741Z,3.42
2022-08-20T15:42:53.506Z,3.13
2022-08-20T15:44:56.194Z,3.20
2022-08-20T15:47:16.861Z,4.45
2022-08-20T15:49:19.522Z,2.70
2022-08-20T15:51:38.280Z,2.80
2022-08-20T15:53:47.030Z,2.67
2022-08-20T15:56:03.115Z,2.15
2022-08-20T15:58:14.233Z,6.18
2022-08-20T16:00:23.914Z,3.17
2022-08-20T16:02:41.655Z,3.10
2022-08-20T16:04:55.986Z,2.97
2022-08-20T16:07:06.165Z,2.83
2022-08-20T16:09:54.836Z,2.38
2022-08-20T16:12:08.162Z,2.53
2022-08-20T16:14:24.776Z,2.90
2022-08-20T16:16:30.040Z,2.95
2022-08-20T16:18:38.198Z,2.97
2022-08-20T16:20:52.841Z,2.97
2022-08-20T16:22:56.311Z,2.58
2022-08-20T16:24:59.741Z,3.10
2022-08-20T16:27:41.016Z,3.63
2022-08-20T16:30:00.414Z,3.05
2022-08-20T16:32:09.221Z,2.90
2022-08-20T16:34:33.981Z,2.38
2022-08-20T16:36:48.802Z,2.53
2022-08-20T16:39:12.043Z,2.17
2022-08-20T16:41:40.104Z,2.58
2022-08-20T16:43:56.621Z,2.92
2022-08-20T16:46:03.838Z,2.72
2022-08-20T16:48:08.602Z,2.80
2022-08-20T16:50:25.900Z,3.00
2022-08-20T16:52:28.522Z,2.58
2022-08-20T16:54:31.523Z,2.80
2022-08-20T16:56:40.723Z,2.90
2022-08-20T16:58:45.450Z,3.00
2022-08-20T17:00:48.195Z,3.33
2022-08-20T17:03:03.059Z,3.40
2022-08-20T17:05:06.768Z,3.10
2022-08-20T17:07:11.722Z,2.65
2022-08-20T17:09:31.950Z,4.45
2022-08-20T17:11:36.643Z,3.90
2022-08-20T17:13:43.515Z,4.43
2022-08-20T17:16:16.388Z,3.80
2022-08-20T17:18:29.819Z,4.53
2022-08-20T17:20:45.096Z,4.63
2022-08-20T17:22:55.196Z,4.25
2022-08-20T17:24:58.436Z,4.72
2022-08-20T17:27:10.097Z,4.13
2022-08-20T17:29:25.766Z,4.75
2022-08-20T17:31:38.807Z,3.92
2022-08-20T17:33:42.566Z,5.47
2022-08-20T17:35:54.650Z,5.28
2022-08-20T17:38:00.107Z,4.60
2022-08-20T17:40:33.965Z,4.32
2022-08-20T17:42:58.851Z,4.18
2022-08-20T17:45:21.344Z,4.95
2022-08-20T17:47:32.408Z,5.88
2022-08-20T17:50:02.372Z,4.88
2022-08-20T17:52:30.332Z,5.63
2022-08-20T17:54:39.456Z,4.65
2022-08-20T17:56:44.258Z,4.97
2022-08-20T18:00:00.212Z,4.80
2022-08-20T18:01:47.404Z,4.60
2022-08-20T18:03:52.280Z,5.13
2022-08-20T18:06:01.629Z,5.47
2022-08-20T18:08:20.367Z,5.90
2022-08-20T18:10:26.437Z,4.93
2022-08-20T18:12:41.749Z,6.25
2022-08-20T18:14:59.829Z,4.90
2022-08-20T18:17:43.817Z,5.72
2022-08-20T18:19:52.418Z,5.82
2022-08-20T18:22:20.258Z,4.65
2022-08-20T18:24:39.063Z,5.10
2022-08-20T18:26:54.250Z,5.65
2022-08-20T18:29:34.308Z,5.95
2022-08-20T18:31:55.550Z,5.32
2022-08-20T18:33:58.729Z,6.05
2022-08-20T18:36:34.605Z,5.18
2022-08-20T18:38:42.095Z,6.15
2022-08-20T18:40:44.787Z,5.07
2022-08-20T18:42:47.729Z,5.25
2022-08-20T18:44:52.769Z,5.60
2022-08-20T18:46:59.434Z,5.93
2022-08-20T18:49:06.209Z,5.45
2022-08-20T18:51:11.811Z,5.20
2022-08-20T18:53:34.435Z,5.72
2022-08-20T18:55:59.402Z,6.00
2022-08-20T18:58:07.076Z,5.13
2022-08-20T19:00:14.625Z,5.93
2022-08-20T19:02:25.176Z,5.85
2022-08-20T19:04:32.124Z,5.25
2022-08-20T19:06:53.289Z,5.88
2022-08-20T19:09:20.279Z,5.72
2022-08-20T19:12:05.037Z,5.95
2022-08-20T19:14:59.110Z,6.80
2022-08-20T19:17:16.862Z,6.20
2022-08-20T19:19:24.535Z,5.80
2022-08-20T19:21:35.751Z,6.25
2022-08-20T19:23:41.627Z,5.40
2022-08-20T19:26:03.483Z,6.03
2022-08-20T19:28:32.066Z,5.55
2022-08-20T19:30:39.767Z,6.00
2022-08-20T19:32:53.763Z,6.32
2022-08-20T19:35:06.606Z,6.20
2022-08-20T19:37:34.919Z,6.68
2022-08-20T19:39:43.381Z,5.57
2022-08-20T19:41:49.120Z,5.20
2022-08-20T19:43:54.289Z,6.10
2022-08-20T19:45:57.328Z,6.43
2022-08-20T19:48:18.508Z,5.63
2022-08-20T19:50:38.185Z,6.13
2022-08-20T19:53:02.845Z,5.18
2022-08-20T19:55:21.935Z,6.13
2022-08-20T19:57:26.254Z,6.10
2022-08-20T19:59:29.226Z,5.78
2022-08-20T20:01:33.786Z,7.60
2022-08-20T20:03:40.403Z,6.47
2022-08-20T20:06:17.028Z,6.30
2022-08-20T20:08:22.608Z,6.15
2022-08-20T20:10:35.266Z,6.63
2022-08-20T20:12:39.642Z,7.05
2022-08-20T20:14:44.388Z,9.95
2022-08-20T20:16:50.724Z,9.25
2022-08-20T20:19:15.730Z,9.77
2022-08-20T20:21:46.933Z,9.98
2022-08-20T20:24:01.885Z,9.10
2022-08-20T20:26:08.732Z,11.48
2022-08-20T20:28:19.884Z,9.88
2022-08-20T20:30:31.090Z,12.00
2022-08-20T20:32:34.189Z,11.15
2022-08-20T20:34:55.041Z,12.27
2022-08-20T20:37:11.537Z,12.55
2022-08-20T20:39:33.604Z,13.07
2022-08-20T20:41:37.823Z,13.05
2022-08-20T20:43:43.448Z,13.45
2022-08-20T20:45:56.295Z,12.43
2022-08-20T20:47:59.328Z,12.73
2022-08-20T20:50:06.472Z,12.75
2022-08-20T20:52:28.847Z,14.07
2022-08-20T20:54:44.367Z,12.80
2022-08-20T20:56:59.020Z,13.10
2022-08-20T20:59:06.077Z,12.93
2022-08-20T21:01:09.596Z,12.70
2022-08-20T21:03:12.732Z,12.50
2022-08-20T21:05:17.569Z,12.73
2022-08-20T21:07:23.166Z,10.98
2022-08-20T21:09:26.894Z,10.93
2022-08-20T21:11:30.538Z,9.85
2022-08-20T21:13:33.172Z,10.18
2022-08-20T21:15:38.149Z,9.90
2022-08-20T21:17:41.335Z,9.68
2022-08-20T21:19:45.377Z,10.40
2022-08-20T21:21:48.193Z,10.20
2022-08-20T21:23:50.803Z,9.32
2022-08-20T21:25:53.469Z,10.07
2022-08-20T21:27:56.648Z,10.23
2022-08-20T21:29:59.395Z,9.63
2022-08-20T21:32:02.027Z,8.80
2022-08-20T21:34:04.723Z,8.55
2022-08-20T21:36:07.670Z,8.50
2022-08-20T21:38:10.553Z,9.65
2022-08-20T21:40:21.568Z,10.05
2022-08-20T21:42:29.098Z,7.55
2022-08-20T21:44:33.671Z,9.80
2022-08-20T21:46:36.425Z,7.55
2022-08-20T21:48:39.248Z,8.27
2022-08-20T21:50:42.251Z,8.50
2022-08-20T21:52:51.741Z,8.10
2022-08-20T21:55:02.441Z,8.32
2022-08-20T21:57:18.099Z,8.32
2022-08-20T21:59:22.894Z,6.78
2022-08-20T22:01:25.674Z,6.60
2022-08-20T22:03:31.744Z,6.10
2022-08-20T22:05:34.919Z,7.50
2022-08-20T22:07:37.756Z,7.65
2022-08-20T22:09:40.465Z,6.40
2022-08-20T22:11:43.382Z,8.10
2022-08-20T22:13:46.415Z,6.38
2022-08-20T22:15:49.104Z,6.57
2022-08-20T22:17:52.010Z,6.10
2022-08-20T22:19:54.673Z,7.60
2022-08-20T22:21:57.539Z,6.18
2022-08-20T22:24:03.841Z,6.85
2022-08-20T22:26:08.007Z,6.45
2022-08-20T22:28:10.746Z,6.13
2022-08-20T22:30:13.694Z,5.90
2022-08-20T22:32:16.389Z,8.10
2022-08-20T22:34:21.609Z,6.80
2022-08-20T22:36:25.694Z,4.97
2022-08-20T22:38:28.670Z,5.70
2022-08-20T22:40:31.385Z,5.75
2022-08-20T22:42:34.100Z,5.05
2022-08-20T22:44:36.725Z,5.30
2022-08-20T22:46:47.057Z,5.90
2022-08-20T22:50:53.870Z,4.70
2022-08-20T22:52:57.010Z,4.88
2022-08-20T22:54:59.760Z,6.18
2022-08-20T22:57:02.431Z,4.57
2022-08-20T22:59:06.823Z,5.03
2022-08-20T23:01:09.963Z,5.78
2022-08-20T23:03:12.929Z,5.18
2022-08-20T23:05:21.602Z,5.40
2022-08-20T23:07:24.392Z,4.82
2022-08-20T23:09:27.800Z,5.03
2022-08-20T23:11:32.882Z,5.55
2022-08-20T23:13:35.667Z,5.32
2022-08-20T23:15:41.507Z,4.53
2022-08-20T23:17:48.601Z,4.80
2022-08-20T23:19:51.760Z,4.93
2022-08-20T23:21:54.417Z,5.53
2022-08-20T23:23:57.136Z,4.43
2022-08-20T23:26:00.966Z,4.20
2022-08-20T23:28:04.419Z,3.80
2022-08-20T23:30:07.954Z,5.03
2022-08-20T23:32:10.760Z,4.32
2022-08-20T23:34:13.489Z,4.30
2022-08-20T23:36:19.723Z,3.65
2022-08-20T23:38:22.356Z,4.30
2022-08-20T23:40:28.408Z,3.90
2022-08-20T23:42:31.307Z,3.47
2022-08-20T23:44:34.008Z,3.47
2022-08-20T23:46:38.118Z,3.70
2022-08-20T23:48:40.809Z,3.92
2022-08-20T23:50:43.588Z,4.20
2022-08-20T23:52:46.421Z,3.72
2022-08-20T23:54:49.195Z,4.00
2022-08-20T23:56:51.944Z,3.28
2022-08-20T23:58:59.692Z,3.25
